Time;durP1;ratioP1;P1;durP2;ratioP2;P2;SDS_P1;SDS_P2;PMS_P1;PMS_P2;Temp;Humidity;BMP_temperature;BMP_pressure;BME280_temperature;BME280_humidity;BME280_pressure;Samples;Min_cycle;Max_cycle;Signal;HPM_P1;HPM_P2
2023/03/05 00:01:21;;;;;;;17.90;7.00;;;;;;;1.02;83.36;98231.02;104625;1265;98786;-67
2023/03/05 00:03:51;;;;;;;24.00;9.20;;;;;;;0.96;83.65;98229.73;104626;1263;107648;-67
2023/03/05 00:06:20;;;;;;;23.90;8.50;;;;;;;0.92;83.87;98226.27;104860;1261;97981;-67
2023/03/05 00:08:48;;;;;;;22.00;8.80;;;;;;;0.90;83.92;98224.30;104656;1266;99209;-67
2023/03/05 00:11:15;;;;;;;18.60;8.10;;;;;;;0.86;84.11;98222.35;104953;1261;110757;-67
2023/03/05 00:13:42;;;;;;;15.30;6.20;;;;;;;0.83;84.30;98220.55;104938;1262;97888;-68
2023/03/05 00:16:13;;;;;;;13.00;6.40;;;;;;;0.82;84.25;98225.17;104748;1261;98412;-67
2023/03/05 00:18:42;;;;;;;17.50;6.40;;;;;;;0.80;84.36;98223.55;104815;1260;97911;-67
2023/03/05 00:21:29;;;;;;;22.50;9.60;;;;;;;0.80;84.20;98216.58;104915;1271;98466;-68
2023/03/05 00:23:59;;;;;;;14.00;5.70;;;;;;;0.82;84.18;98213.96;104968;1263;111830;-68
2023/03/05 00:26:28;;;;;;;10.70;4.70;;;;;;;0.85;84.25;98215.70;104872;1262;99385;-68
2023/03/05 00:28:57;;;;;;;14.20;5.50;;;;;;;0.90;84.21;98213.67;104778;1262;107534;-68
2023/03/05 00:31:30;;;;;;;10.90;4.20;;;;;;;0.94;84.08;98212.42;104939;1263;97938;-68
2023/03/05 00:34:00;;;;;;;9.90;3.60;;;;;;;0.95;83.85;98209.18;104596;1257;98725;-68
2023/03/05 00:36:28;;;;;;;5.90;3.30;;;;;;;0.92;83.56;98208.34;105005;1257;112842;-68
2023/03/05 00:38:55;;;;;;;7.00;3.20;;;;;;;0.89;83.47;98202.28;104988;1261;99458;-68
2023/03/05 00:41:22;;;;;;;7.40;3.10;;;;;;;0.87;83.32;98201.52;104950;1261;97921;-68
2023/03/05 00:43:50;;;;;;;5.90;3.00;;;;;;;0.82;82.94;98201.92;104787;1262;98542;-67
2023/03/05 00:46:16;;;;;;;7.10;3.00;;;;;;;0.74;82.76;98193.61;105001;1257;98027;-68
2023/03/05 00:48:44;;;;;;;7.30;3.00;;;;;;;0.67;82.66;98190.19;104904;1262;98077;-68
2023/03/05 00:51:11;;;;;;;7.60;2.70;;;;;;;0.58;82.66;98184.02;104809;1263;97933;-68
2023/03/05 00:53:38;;;;;;;5.70;3.30;;;;;;;0.53;82.79;98180.06;104724;1263;97941;-68
2023/03/05 00:56:06;;;;;;;8.00;4.20;;;;;;;0.49;83.04;98179.50;104746;1265;97987;-69
2023/03/05 00:58:33;;;;;;;8.00;4.10;;;;;;;0.47;83.01;98177.66;104847;1264;99127;-68
2023/03/05 01:01:01;;;;;;;8.00;3.40;;;;;;;0.45;83.12;98171.16;104843;1262;98421;-72
2023/03/05 01:03:31;;;;;;;7.80;3.40;;;;;;;0.43;83.07;98169.70;104939;1257;97902;-68
2023/03/05 01:05:59;;;;;;;7.20;3.20;;;;;;;0.43;83.14;98171.15;104552;1263;509213;-68
2023/03/05 01:08:27;;;;;;;9.80;3.60;;;;;;;0.46;83.07;98167.40;104943;1263;97959;-68
2023/03/05 01:10:54;;;;;;;8.80;4.00;;;;;;;0.48;83.13;98166.13;104761;1262;98040;-68
2023/03/05 01:13:22;;;;;;;9.90;3.70;;;;;;;0.49;83.09;98165.96;104949;1263;99096;-68
2023/03/05 01:15:49;;;;;;;11.10;4.50;;;;;;;0.52;83.23;98161.41;104945;1262;97897;-68
2023/03/05 01:18:18;;;;;;;8.10;4.20;;;;;;;0.53;83.17;98163.24;104650;1266;108200;-68
2023/03/05 01:20:46;;;;;;;14.20;5.70;;;;;;;0.54;83.17;98162.91;104868;1271;97972;-69
2023/03/05 01:23:15;;;;;;;13.00;5.90;;;;;;;0.52;83.12;98159.79;104691;1266;99653;-69
2023/03/05 01:25:42;;;;;;;13.20;5.60;;;;;;;0.49;83.40;98154.85;104924;1272;112082;-69
2023/03/05 01:28:09;;;;;;;11.40;6.00;;;;;;;0.46;83.36;98150.19;104609;1262;97900;-70
2023/03/05 01:30:37;;;;;;;9.40;5.10;;;;;;;0.43;83.46;98149.58;104844;1263;97893;-70
2023/03/05 01:33:04;;;;;;;14.70;7.40;;;;;;;0.40;83.38;98149.94;104948;1262;97903;-70
2023/03/05 01:35:32;;;;;;;12.40;7.20;;;;;;;0.38;83.78;98151.82;104797;1257;97909;-68
2023/03/05 01:37:59;;;;;;;15.90;7.20;;;;;;;0.37;83.62;98148.52;104953;1262;99203;-70
2023/03/05 01:40:30;;;;;;;15.60;6.60;;;;;;;0.35;83.75;98150.02;104982;1262;99195;-70
2023/03/05 01:43:28;;;;;;;13.70;4.90;;;;;;;0.34;83.83;98148.94;104794;1257;108571;-71
2023/03/05 01:46:35;;;;;;;12.40;5.40;;;;;;;0.32;83.80;98149.83;104727;1263;98010;-67
2023/03/05 01:49:31;;;;;;;14.80;5.90;;;;;;;0.33;83.88;98146.39;104869;1270;98360;-70
2023/03/05 01:52:16;;;;;;;13.90;6.00;;;;;;;0.38;83.96;98146.64;104754;1261;111170;-69
2023/03/05 01:54:50;;;;;;;13.80;5.50;;;;;;;0.42;83.98;98141.05;104793;1262;99368;-68
2023/03/05 01:57:34;;;;;;;31.20;13.00;;;;;;;0.44;83.78;98133.30;104799;1261;108637;-69
2023/03/05 02:00:09;;;;;;;20.40;9.60;;;;;;;0.46;83.67;98139.48;104933;1263;97893;-69
2023/03/05 02:02:36;;;;;;;15.40;7.80;;;;;;;0.53;83.79;98141.72;104845;1262;97891;-68
2023/03/05 02:05:07;;;;;;;14.80;6.70;;;;;;;0.56;83.77;98140.23;105004;1257;98005;-68
2023/03/05 02:07:36;;;;;;;;;;;;;;;0.54;83.68;98144.96;104985;1263;99074;-68
2023/03/05 02:10:18;;;;;;;16.10;7.10;;;;;;;0.51;83.87;98141.17;104637;1266;105836;-68
2023/03/05 02:12:48;;;;;;;15.20;7.00;;;;;;;0.47;83.60;98139.00;104977;1263;97896;-69
2023/03/05 02:15:16;;;;;;;15.50;7.10;;;;;;;0.43;83.74;98140.80;104632;1265;99655;-69
2023/03/05 02:17:43;;;;;;;12.00;6.70;;;;;;;0.43;83.98;98142.73;104467;1265;111143;-69
2023/03/05 02:20:17;;;;;;;16.00;6.90;;;;;;;0.44;84.05;98142.90;104873;1263;98153;-72
2023/03/05 02:22:45;;;;;;;19.10;7.50;;;;;;;0.43;83.92;98140.52;104540;1278;107597;-70
2023/03/05 02:25:24;;;;;;;11.40;6.10;;;;;;;0.39;83.99;98139.20;105029;1262;97940;-70
2023/03/05 02:28:27;;;;;;;13.30;6.00;;;;;;;0.37;84.12;98143.77;104968;1264;97897;-68
2023/03/05 02:30:54;;;;;;;15.40;6.50;;;;;;;0.32;84.16;98141.85;104572;1264;111009;-70
2023/03/05 02:33:21;;;;;;;13.90;7.40;;;;;;;0.31;84.44;98141.20;104861;1262;98671;-71
2023/03/05 02:35:48;;;;;;;13.70;6.60;;;;;;;0.32;84.52;98138.23;104762;1262;97956;-70
2023/03/05 02:38:19;;;;;;;15.30;6.80;;;;;;;0.32;84.55;98141.80;104658;1263;99217;-69
2023/03/05 02:40:46;;;;;;;13.60;7.30;;;;;;;0.34;84.71;98139.55;104792;1263;98415;-69
2023/03/05 02:43:13;;;;;;;12.70;7.50;;;;;;;0.35;84.72;98140.15;104883;1273;97920;-70
2023/03/05 02:45:40;;;;;;;15.00;6.60;;;;;;;0.39;84.80;98140.13;104664;1263;98797;-70
2023/03/05 02:48:07;;;;;;;10.20;5.80;;;;;;;0.39;84.86;98138.34;104801;1262;97992;-70
2023/03/05 02:50:35;;;;;;;11.60;6.20;;;;;;;0.40;85.00;98139.92;104772;1263;97922;-69
2023/03/05 02:53:02;;;;;;;11.90;5.60;;;;;;;0.40;85.01;98142.02;104869;1262;97925;-70
2023/03/05 02:55:29;;;;;;;12.40;5.60;;;;;;;0.37;85.05;98137.15;104797;1263;97857;-70
2023/03/05 02:57:56;;;;;;;11.90;5.70;;;;;;;0.32;85.23;98139.27;104752;1263;97983;-69
2023/03/05 03:00:23;;;;;;;11.30;5.60;;;;;;;0.30;85.31;98139.52;104953;1263;97890;-69
2023/03/05 03:02:50;;;;;;;12.70;6.10;;;;;;;0.26;85.38;98137.08;104969;1263;97988;-69
2023/03/05 03:05:17;;;;;;;12.30;5.90;;;;;;;0.22;85.45;98132.42;104996;1262;98026;-69
2023/03/05 03:07:45;;;;;;;18.70;7.50;;;;;;;0.20;85.58;98131.21;104925;1263;98879;-69
2023/03/05 03:10:17;;;;;;;17.20;8.50;;;;;;;0.19;85.62;98125.55;104584;1267;98713;-69
2023/03/05 03:12:44;;;;;;;18.30;9.80;;;;;;;0.18;85.76;98128.13;104921;1262;97986;-69
2023/03/05 03:15:13;;;;;;;18.60;9.30;;;;;;;0.21;85.90;98125.23;104846;1263;97891;-69
2023/03/05 03:17:41;;;;;;;19.40;8.80;;;;;;;0.21;85.73;98129.59;104828;1262;99084;-68
2023/03/05 03:20:12;;;;;;;18.70;8.00;;;;;;;0.23;85.98;98129.67;104592;1265;111974;-69
2023/03/05 03:22:40;;;;;;;14.80;6.80;;;;;;;0.30;86.23;98126.75;104618;1257;98228;-68
2023/03/05 03:25:09;;;;;;;20.70;9.60;;;;;;;0.35;86.13;98119.61;104795;1257;108581;-68
2023/03/05 03:27:36;;;;;;;27.20;11.30;;;;;;;0.40;86.04;98109.67;104623;1266;99113;-68
2023/03/05 03:30:05;;;;;;;30.90;11.90;;;;;;;0.40;85.92;98112.68;104929;1263;98261;-68
2023/03/05 03:32:33;;;;;;;19.30;8.90;;;;;;;0.42;85.99;98117.29;104532;1265;110255;-68
2023/03/05 03:35:00;;;;;;;16.40;8.10;;;;;;;0.40;85.71;98116.90;104714;1263;99038;-68
2023/03/05 03:37:29;;;;;;;13.10;7.30;;;;;;;0.30;85.42;98112.30;104716;1264;107765;-69
2023/03/05 03:39:56;;;;;;;11.30;7.00;;;;;;;0.28;85.85;98109.85;104392;1257;98075;-69
2023/03/05 03:42:24;;;;;;;19.60;7.00;;;;;;;0.28;85.99;98105.81;104808;1262;97982;-68
2023/03/05 03:44:51;;;;;;;16.50;7.00;;;;;;;0.22;85.81;98111.01;104834;1267;111877;-72
2023/03/05 03:47:18;;;;;;;17.00;7.00;;;;;;;0.14;85.86;98108.81;104875;1260;97984;-69
2023/03/05 03:49:45;;;;;;;14.00;7.30;;;;;;;0.09;86.06;98106.48;104934;1278;97913;-71
2023/03/05 03:52:12;;;;;;;21.30;9.90;;;;;;;0.06;86.19;98100.13;104908;1263;97906;-71
2023/03/05 03:54:39;;;;;;;19.80;9.20;;;;;;;0.04;86.18;98099.95;104661;1262;98418;-70
2023/03/05 03:57:07;;;;;;;27.30;11.20;;;;;;;0.07;86.36;98098.39;104827;1262;99255;-70
2023/03/05 03:59:34;;;;;;;32.40;14.70;;;;;;;0.10;86.45;98097.89;104831;1258;97885;-69
2023/03/05 04:02:01;;;;;;;38.00;15.60;;;;;;;0.16;86.64;98093.67;104828;1264;98552;-71
2023/03/05 04:04:29;;;;;;;32.30;13.90;;;;;;;0.22;86.69;98086.06;104737;1261;98008;-70
2023/03/05 04:06:56;;;;;;;21.50;10.70;;;;;;;0.24;86.40;98083.05;104715;1263;98784;-70
2023/03/05 04:09:23;;;;;;;25.50;12.30;;;;;;;0.26;86.39;98083.77;104822;1263;99091;-70
2023/03/05 04:11:50;;;;;;;29.50;12.50;;;;;;;0.23;86.12;98079.83;105008;1256;98051;-67
2023/03/05 04:14:16;;;;;;;26.30;12.90;;;;;;;0.21;86.22;98073.88;104932;1263;97889;-69
2023/03/05 04:16:43;;;;;;;35.70;15.60;;;;;;;0.20;86.37;98074.94;104761;1260;99291;-69
2023/03/05 04:19:10;;;;;;;33.90;16.20;;;;;;;0.18;86.37;98072.13;104934;1262;97909;-69
2023/03/05 04:21:38;;;;;;;33.90;15.90;;;;;;;0.10;86.20;98070.98;104939;1262;97908;-69
2023/03/05 04:24:07;;;;;;;33.70;14.50;;;;;;;0.07;86.57;98067.58;104956;1260;98542;-70
2023/03/05 04:26:34;;;;;;;44.20;17.90;;;;;;;0.06;86.66;98057.39;104876;1263;97985;-69
2023/03/05 04:29:02;;;;;;;29.10;14.80;;;;;;;0.02;86.50;98054.13;104795;1262;98515;-70
2023/03/05 04:31:29;;;;;;;30.60;16.10;;;;;;;-0.04;86.33;98047.41;105029;1262;99089;-69
2023/03/05 04:33:56;;;;;;;42.80;20.30;;;;;;;-0.09;86.09;98060.03;104878;1271;99110;-70
2023/03/05 04:36:23;;;;;;;42.90;20.80;;;;;;;-0.13;86.13;98058.73;104874;1262;97972;-69
2023/03/05 04:38:50;;;;;;;49.50;20.80;;;;;;;-0.10;86.42;98050.42;105012;1257;97889;-69
2023/03/05 04:41:16;;;;;;;47.00;19.00;;;;;;;-0.07;86.30;98049.60;104999;1257;98344;-69
2023/03/05 04:43:43;;;;;;;34.20;16.90;;;;;;;-0.06;86.03;98045.52;105013;1270;98062;-68
2023/03/05 04:46:10;;;;;;;40.30;19.50;;;;;;;-0.04;86.04;98042.45;104822;1263;99225;-68
2023/03/05 04:48:37;;;;;;;38.90;15.60;;;;;;;0.02;86.13;98041.15;104866;1262;97983;-68
2023/03/05 04:51:04;;;;;;;19.40;10.20;;;;;;;0.06;86.07;98034.59;104746;1263;97918;-69
2023/03/05 04:53:31;;;;;;;23.00;10.80;;;;;;;0.03;85.32;98033.08;104787;1273;97972;-68
2023/03/05 04:56:00;;;;;;;22.00;10.20;;;;;;;-0.01;85.14;98035.91;104707;1263;99195;-68
2023/03/05 04:58:27;;;;;;;19.50;9.00;;;;;;;-0.07;84.96;98034.03;104948;1263;108616;-68
2023/03/05 05:01:00;;;;;;;22.00;10.00;;;;;;;-0.10;84.87;98037.51;104689;1270;97922;-68
2023/03/05 05:03:27;;;;;;;43.70;15.60;;;;;;;-0.16;84.90;98045.22;104604;1263;99741;-69
2023/03/05 05:05:56;;;;;;;22.80;11.10;;;;;;;-0.20;84.98;98039.59;104464;1276;111299;-77
2023/03/05 05:08:23;;;;;;;19.10;9.30;;;;;;;-0.24;84.93;98038.38;105002;1263;99473;-74
2023/03/05 05:11:03;;;;;;;29.70;13.30;;;;;;;-0.27;84.90;98036.48;105049;1271;107620;-70
2023/03/05 05:13:31;;;;;;;39.60;14.40;;;;;;;-0.30;84.97;98039.74;105040;1270;97942;-73
2023/03/05 05:15:59;;;;;;;30.20;12.40;;;;;;;-0.33;85.10;98038.38;105038;1262;97918;-75
2023/03/05 05:18:26;;;;;;;29.60;12.90;;;;;;;-0.37;85.16;98038.88;104598;1267;111237;-76
2023/03/05 05:20:53;;;;;;;36.60;16.40;;;;;;;-0.43;85.24;98038.88;104879;1270;98362;-76
2023/03/05 05:23:20;;;;;;;34.20;15.60;;;;;;;-0.45;85.42;98042.95;104959;1264;99453;-74
2023/03/05 05:25:58;;;;;;;27.50;13.70;;;;;;;-0.46;85.50;98044.56;104796;1263;97884;-78
2023/03/05 05:28:25;;;;;;;16.70;9.10;;;;;;;-0.44;85.49;98047.97;104612;1264;98385;-73
2023/03/05 05:30:53;;;;;;;18.00;9.10;;;;;;;-0.39;85.65;98049.68;104705;1274;98721;-78
2023/03/05 05:33:21;;;;;;;29.30;13.80;;;;;;;-0.35;85.74;98053.64;104903;1263;99092;-78
2023/03/05 05:35:49;;;;;;;20.50;8.90;;;;;;;-0.34;85.55;98058.89;105009;1263;108457;-79
2023/03/05 05:38:16;;;;;;;17.90;8.40;;;;;;;-0.34;85.66;98063.13;104668;1272;97996;-78
2023/03/05 05:40:43;;;;;;;18.70;8.20;;;;;;;-0.33;85.76;98062.81;104751;1263;97986;-79
2023/03/05 05:43:10;;;;;;;18.30;8.70;;;;;;;-0.33;85.96;98061.25;104685;1262;97897;-80
2023/03/05 05:45:37;;;;;;;29.90;12.40;;;;;;;-0.32;86.09;98058.25;104743;1270;97977;-76
2023/03/05 05:48:05;;;;;;;24.90;12.80;;;;;;;-0.34;86.01;98060.33;104798;1270;98242;-78
2023/03/05 05:50:32;;;;;;;20.50;10.40;;;;;;;-0.38;86.00;98062.09;104946;1262;98499;-76
2023/03/05 05:52:59;;;;;;;19.50;9.40;;;;;;;-0.40;86.14;98064.11;104955;1268;97977;-76
2023/03/05 05:55:26;;;;;;;21.30;10.00;;;;;;;-0.43;86.32;98065.27;104945;1263;98015;-80
2023/03/05 05:57:53;;;;;;;22.10;11.50;;;;;;;-0.45;86.34;98065.40;104684;1267;97985;-79
2023/03/05 06:00:20;;;;;;;24.90;11.60;;;;;;;-0.44;86.37;98070.73;104736;1273;97911;-79
2023/03/05 06:02:47;;;;;;;24.40;11.20;;;;;;;-0.41;86.50;98069.96;104863;1257;99284;-79
2023/03/05 06:05:14;;;;;;;23.90;13.90;;;;;;;-0.37;86.40;98068.33;104957;1264;97921;-75
2023/03/05 06:07:42;;;;;;;25.80;12.20;;;;;;;-0.34;86.51;98073.15;104559;1267;99624;-80
2023/03/05 06:10:10;;;;;;;25.30;13.60;;;;;;;-0.31;86.52;98071.84;104943;1263;108248;-82
2023/03/05 06:12:37;;;;;;;17.30;9.70;;;;;;;-0.21;86.78;98076.47;104618;1274;99214;-83
2023/03/05 06:15:05;;;;;;;19.50;9.20;;;;;;;-0.17;86.62;98076.35;104900;1263;98008;-81
2023/03/05 06:17:32;;;;;;;15.90;8.00;;;;;;;-0.14;86.47;98076.64;104592;1274;98976;-67
2023/03/05 06:20:00;;;;;;;14.30;8.20;;;;;;;-0.14;86.47;98080.59;104970;1262;97924;-69
2023/03/05 06:22:27;;;;;;;20.60;9.50;;;;;;;-0.13;86.65;98076.48;104656;1262;97905;-76
2023/03/05 06:24:54;;;;;;;18.50;9.60;;;;;;;-0.14;86.56;98072.01;104450;1263;97922;-67
2023/03/05 06:27:21;;;;;;;18.60;10.70;;;;;;;-0.14;86.60;98073.90;104763;1265;98024;-81
2023/03/05 06:29:52;;;;;;;22.80;11.80;;;;;;;-0.19;86.10;98075.80;104810;1263;98009;-81
2023/03/05 06:32:19;;;;;;;19.70;11.20;;;;;;;-0.25;86.32;98070.63;104580;1262;98274;-79
2023/03/05 06:34:46;;;;;;;15.50;8.80;;;;;;;-0.30;86.44;98073.41;104550;1276;108872;-79
2023/03/05 06:37:13;;;;;;;18.10;9.60;;;;;;;-0.31;86.62;98068.70;104730;1271;97905;-69
2023/03/05 06:39:40;;;;;;;18.70;9.50;;;;;;;-0.31;86.51;98063.81;104745;1257;98794;-79
2023/03/05 06:42:08;;;;;;;19.70;10.30;;;;;;;-0.27;86.54;98061.20;104907;1278;97895;-71
2023/03/05 06:44:40;;;;;;;21.20;10.40;;;;;;;-0.26;86.32;98061.41;104828;1264;98008;-74
2023/03/05 06:47:09;;;;;;;22.60;10.60;;;;;;;-0.22;86.62;98058.27;105037;1263;108658;-74
2023/03/05 06:49:37;;;;;;;47.10;21.40;;;;;;;-0.12;86.73;98051.45;104589;1271;97919;-70
2023/03/05 06:52:05;;;;;;;49.80;18.20;;;;;;;-0.01;86.66;98048.88;104795;1263;98299;-67
2023/03/05 06:54:33;;;;;;;31.20;13.90;;;;;;;0.07;86.44;98046.55;104674;1258;111178;-76
2023/03/05 06:57:00;;;;;;;41.10;17.10;;;;;;;0.09;86.09;98046.79;104961;1262;99566;-70
2023/03/05 06:59:27;;;;;;;27.60;12.80;;;;;;;0.13;86.24;98045.21;104818;1261;108728;-74
2023/03/05 07:01:54;;;;;;;49.50;16.80;;;;;;;0.16;85.94;98041.77;104913;1262;97888;-68
2023/03/05 07:04:23;;;;;;;41.80;26.50;;;;;;;0.14;85.78;98036.05;104894;1271;99311;-72
2023/03/05 07:06:50;;;;;;;22.90;12.70;;;;;;;0.12;85.82;98034.85;104834;1262;113843;-71
2023/03/05 07:09:22;;;;;;;23.90;13.30;;;;;;;0.09;85.71;98034.45;104672;1263;99330;-71
2023/03/05 07:11:55;;;;;;;22.60;11.10;;;;;;;0.09;86.03;98031.54;104592;1277;108366;-70
2023/03/05 07:14:22;;;;;;;23.80;11.00;;;;;;;0.07;85.86;98027.17;104933;1271;99401;-71
2023/03/05 07:16:49;;;;;;;26.50;11.30;;;;;;;0.04;85.86;98026.23;104895;1273;99264;-73
2023/03/05 07:19:16;;;;;;;20.80;10.20;;;;;;;0.04;85.78;98025.91;104910;1272;99759;-77
2023/03/05 07:21:43;;;;;;;24.80;12.10;;;;;;;0.06;85.71;98023.33;104935;1274;99265;-76
2023/03/05 07:24:11;;;;;;;34.70;15.30;;;;;;;0.07;85.57;98021.78;104655;1271;99233;-75
2023/03/05 07:26:38;;;;;;;31.80;15.20;;;;;;;0.15;85.84;98021.02;104872;1271;100430;-70
2023/03/05 07:29:05;;;;;;;54.10;19.80;;;;;;;0.21;85.56;98018.89;104588;1263;99374;-76
2023/03/05 07:31:32;;;;;;;46.20;18.70;;;;;;;0.29;85.49;98011.17;104750;1270;100506;-69
2023/03/05 07:34:01;;;;;;;44.60;14.80;;;;;;;0.37;85.32;98010.98;104953;1258;99323;-68
2023/03/05 07:36:29;;;;;;;28.90;11.40;;;;;;;0.48;85.03;98011.48;104757;1273;99324;-68
2023/03/05 07:38:56;;;;;;;45.90;15.90;;;;;;;0.54;84.90;98009.77;104590;1263;100582;-66
2023/03/05 07:41:23;;;;;;;49.90;21.60;;;;;;;0.65;85.10;98007.33;104696;1262;99297;-66
2023/03/05 07:43:53;;;;;;;73.30;31.00;;;;;;;0.78;85.08;98006.84;104726;1262;100570;-67
2023/03/05 07:46:23;;;;;;;94.80;38.30;;;;;;;0.86;84.73;98002.00;104569;1260;108684;-67
2023/03/05 07:48:53;;;;;;;112.20;42.40;;;;;;;0.88;84.19;97996.23;104408;1274;99454;-67
2023/03/05 07:51:25;;;;;;;111.60;40.00;;;;;;;0.83;83.90;97993.73;104496;1276;99362;-69
2023/03/05 07:53:57;;;;;;;77.70;27.70;;;;;;;0.80;83.99;97989.04;104491;1266;112588;-67
2023/03/05 07:56:34;;;;;;;35.20;16.50;;;;;;;0.76;83.70;97987.20;104621;1262;100745;-69
2023/03/05 07:59:04;;;;;;;48.50;20.90;;;;;;;0.71;83.79;97984.16;104472;1276;109473;-69
2023/03/05 08:01:32;;;;;;;121.80;48.20;;;;;;;0.74;84.22;97979.95;104768;1262;99237;-70
2023/03/05 08:04:00;;;;;;;91.80;34.80;;;;;;;0.80;84.36;97977.34;104575;1272;99692;-69
2023/03/05 08:06:27;;;;;;;54.90;24.00;;;;;;;0.84;84.03;97977.71;104657;1264;111743;-68
2023/03/05 08:08:54;;;;;;;61.20;23.80;;;;;;;0.91;84.09;97970.45;104825;1262;99246;-68
2023/03/05 08:11:21;;;;;;;110.90;34.70;;;;;;;0.99;83.84;97970.14;104872;1272;100559;-67
2023/03/05 08:13:48;;;;;;;48.00;17.40;;;;;;;1.05;83.81;97969.71;104913;1271;99383;-67
2023/03/05 08:16:18;;;;;;;74.90;29.70;;;;;;;1.13;84.32;97969.29;104861;1271;99256;-67
2023/03/05 08:18:46;;;;;;;105.20;42.90;;;;;;;1.16;83.74;97972.80;104565;1276;112662;-68
2023/03/05 08:21:19;;;;;;;71.50;29.30;;;;;;;1.17;83.71;97968.91;104640;1273;99412;-68
2023/03/05 08:23:46;;;;;;;65.00;27.80;;;;;;;1.19;84.02;97968.80;104754;1273;108329;-67
2023/03/05 08:26:16;;;;;;;44.50;20.00;;;;;;;1.26;84.75;97964.82;104941;1262;99255;-68
2023/03/05 08:28:43;;;;;;;38.60;17.70;;;;;;;1.35;84.67;97967.67;104589;1268;101029;-69
2023/03/05 08:31:16;;;;;;;30.40;13.30;;;;;;;1.40;84.55;97969.14;105018;1263;113987;-73
2023/03/05 08:33:50;;;;;;;18.00;8.30;;;;;;;1.44;84.62;97967.29;104940;1271;99312;-72
2023/03/05 08:36:24;;;;;;;36.50;15.60;;;;;;;1.46;84.47;97972.53;104954;1271;108414;-73
2023/03/05 08:38:55;;;;;;;27.70;12.20;;;;;;;1.50;84.60;97970.64;104857;1264;100450;-74
2023/03/05 08:41:32;;;;;;;32.90;14.60;;;;;;;1.52;84.38;97972.38;104892;1273;101097;-74
2023/03/05 08:44:12;;;;;;;26.50;12.00;;;;;;;1.56;84.29;97969.90;104934;1263;113919;-69
2023/03/05 08:46:44;;;;;;;30.00;13.20;;;;;;;1.53;83.93;97970.81;104840;1264;99256;-67
2023/03/05 08:49:11;;;;;;;28.30;13.50;;;;;;;1.52;83.87;97967.19;104641;1263;99355;-66
2023/03/05 08:51:38;;;;;;;31.40;13.80;;;;;;;1.53;84.02;97969.40;104738;1268;99249;-66
2023/03/05 08:54:06;;;;;;;30.20;13.70;;;;;;;1.49;84.03;97967.46;104699;1263;100447;-66
2023/03/05 08:56:34;;;;;;;35.90;16.70;;;;;;;1.44;84.15;97965.47;104894;1261;100587;-66
2023/03/05 08:59:02;;;;;;;38.10;17.00;;;;;;;1.38;84.50;97966.27;104786;1263;100617;-67
2023/03/05 09:01:30;;;;;;;26.80;13.20;;;;;;;1.34;84.52;97961.69;104505;1264;107717;-69
2023/03/05 09:03:58;;;;;;;35.40;17.50;;;;;;;1.29;84.71;97962.48;104714;1262;99293;-71
2023/03/05 09:06:26;;;;;;;33.90;15.00;;;;;;;1.27;84.98;97956.62;104907;1257;100441;-68
2023/03/05 09:08:54;;;;;;;34.20;15.00;;;;;;;1.27;85.19;97956.02;104608;1266;112782;-75
2023/03/05 09:11:21;;;;;;;23.10;10.00;;;;;;;1.27;85.46;97954.61;104768;1262;99845;-69
2023/03/05 09:13:48;;;;;;;50.30;26.80;;;;;;;1.27;85.45;97951.32;104703;1270;99365;-68
2023/03/05 09:16:17;;;;;;;30.20;13.90;;;;;;;1.29;85.46;97952.99;104949;1261;99237;-69
2023/03/05 09:18:44;;;;;;;31.20;13.60;;;;;;;1.33;85.68;97951.97;104993;1263;99765;-69
2023/03/05 09:21:14;;;;;;;31.60;15.00;;;;;;;1.37;85.53;97949.75;104950;1271;99322;-68
2023/03/05 09:23:43;;;;;;;29.60;14.60;;;;;;;1.44;85.61;97954.38;104656;1273;99508;-69
2023/03/05 09:26:14;;;;;;;32.60;14.90;;;;;;;1.48;85.37;97951.00;104901;1257;108511;-68
2023/03/05 09:28:41;;;;;;;29.10;14.20;;;;;;;1.49;85.59;97953.91;104642;1276;99952;-70
2023/03/05 09:31:10;;;;;;;32.50;15.20;;;;;;;1.53;85.65;97951.32;104655;1267;99691;-68
2023/03/05 09:33:38;;;;;;;37.00;16.10;;;;;;;1.55;85.71;97951.20;104710;1261;113616;-66
2023/03/05 09:36:25;;;;;;;30.80;15.50;;;;;;;1.53;85.34;97952.83;104981;1270;99247;-67
2023/03/05 09:38:52;;;;;;;35.10;16.00;;;;;;;1.51;85.54;97955.42;104657;1270;108616;-70
2023/03/05 09:41:26;;;;;;;29.30;14.30;;;;;;;1.50;85.90;97956.50;104771;1274;99332;-74
2023/03/05 09:44:34;;;;;;;20.00;9.70;;;;;;;1.46;85.62;97956.88;104788;1263;99464;-72
2023/03/05 09:47:18;;;;;;;32.00;13.80;;;;;;;1.41;85.33;97954.40;104252;1286;113321;-72
2023/03/05 09:50:04;;;;;;;34.30;13.90;;;;;;;1.38;85.11;97949.20;104512;1267;99392;-73
2023/03/05 09:53:25;;;;;;;30.90;11.80;;;;;;;1.37;85.17;97952.45;104157;1278;107698;-71
2023/03/05 09:55:53;;;;;;;;;;;;;;;1.35;85.05;97955.20;103858;1275;99407;-72
2023/03/05 09:58:32;;;;;;;32.90;13.60;;;;;;;1.32;84.92;97953.16;103812;1282;99459;-72
2023/03/05 10:01:10;;;;;;;26.60;12.00;;;;;;;1.34;85.23;97949.31;103600;1288;112750;-71
2023/03/05 10:03:37;;;;;;;34.00;14.30;;;;;;;1.33;85.05;97945.77;103994;1273;99402;-72
2023/03/05 10:06:28;;;;;;;30.60;12.40;;;;;;;1.31;85.30;97941.45;103919;1270;100678;-71
2023/03/05 10:09:10;;;;;;;32.30;12.80;;;;;;;1.28;85.36;97942.41;103881;1282;99435;-70
2023/03/05 10:11:55;;;;;;;28.90;11.70;;;;;;;1.29;85.65;97940.68;103908;1281;100658;-72
2023/03/05 10:14:30;;;;;;;35.90;15.60;;;;;;;1.26;85.70;97938.95;103969;1273;112565;-72
2023/03/05 10:17:22;;;;;;;22.60;10.30;;;;;;;1.20;85.97;97945.11;103970;1285;99210;-71
2023/03/05 10:20:32;;;;;;;48.40;17.60;;;;;;;1.18;86.15;97953.41;103892;1284;109925;-71
2023/03/05 10:23:08;;;;;;;24.00;10.80;;;;;;;1.16;86.11;97950.94;103942;1281;99507;-71
2023/03/05 10:26:00;;;;;;;17.10;7.50;;;;;;;1.09;85.48;97953.36;104025;1282;99728;-72
2023/03/05 10:28:55;;;;;;;13.20;5.80;;;;;;;1.00;84.56;97950.60;104072;1287;113137;-70
2023/03/05 10:31:33;;;;;;;11.00;5.40;;;;;;;0.92;84.10;97949.67;104686;1267;99433;-72
2023/03/05 10:34:43;;;;;;;10.60;4.50;;;;;;;0.88;83.96;97946.27;104844;1262;107602;-70
2023/03/05 10:37:49;;;;;;;10.50;5.00;;;;;;;0.81;83.95;97940.97;104601;1267;100600;-68
2023/03/05 10:40:34;;;;;;;8.70;4.50;;;;;;;0.76;84.33;97937.04;104709;1261;99393;-69
2023/03/05 10:43:17;;;;;;;12.60;5.40;;;;;;;0.71;84.49;97934.59;104562;1268;112691;-69
2023/03/05 10:45:46;;;;;;;14.10;5.80;;;;;;;0.68;84.88;97927.30;104674;1270;99580;-69
2023/03/05 10:48:22;;;;;;;15.40;6.60;;;;;;;0.67;85.31;97925.47;104469;1272;107737;-69
2023/03/05 10:50:56;;;;;;;20.80;7.00;;;;;;;0.70;85.48;97924.57;104651;1261;99300;-67
2023/03/05 10:53:54;;;;;;;11.60;6.10;;;;;;;0.73;85.43;97926.23;104846;1264;100952;-69
2023/03/05 10:56:26;;;;;;;17.60;7.40;;;;;;;0.75;85.55;97918.09;104929;1270;113692;-69
2023/03/05 10:58:54;;;;;;;12.30;7.10;;;;;;;0.81;85.66;97914.91;104671;1268;99319;-69
2023/03/05 11:01:26;;;;;;;10.90;5.70;;;;;;;0.82;85.52;97913.02;104545;1272;107564;-69
2023/03/05 11:04:05;;;;;;;15.00;6.30;;;;;;;0.87;85.78;97910.23;104870;1260;99281;-68
2023/03/05 11:06:40;;;;;;;14.50;7.30;;;;;;;0.96;85.80;97904.14;104835;1258;100901;-71
2023/03/05 11:09:28;;;;;;;17.90;7.60;;;;;;;1.01;85.33;97907.27;104742;1270;113836;-69
2023/03/05 11:12:08;;;;;;;18.50;8.70;;;;;;;1.00;85.01;97905.76;104890;1270;99262;-69
2023/03/05 11:14:39;;;;;;;24.10;9.30;;;;;;;1.03;85.10;97901.29;104752;1270;108651;-69
2023/03/05 11:17:29;;;;;;;21.30;8.50;;;;;;;1.07;84.99;97901.88;104852;1257;99302;-69
2023/03/05 11:20:26;;;;;;;21.60;8.40;;;;;;;1.09;84.79;97897.45;104754;1261;100460;-70
2023/03/05 11:23:13;;;;;;;19.50;8.50;;;;;;;1.10;84.60;97896.04;104886;1261;113810;-71
2023/03/05 11:26:03;;;;;;;18.70;8.80;;;;;;;1.13;84.70;97892.32;104483;1264;99327;-69
2023/03/05 11:28:55;;;;;;;48.00;22.90;;;;;;;1.19;84.99;97885.52;104777;1257;108822;-72
2023/03/05 11:31:26;;;;;;;85.50;38.20;;;;;;;1.21;84.62;97881.09;104698;1272;99359;-72
2023/03/05 11:34:16;;;;;;;41.90;21.80;;;;;;;1.23;84.39;97876.39;104694;1267;101160;-72
2023/03/05 11:37:02;;;;;;;31.00;14.70;;;;;;;1.26;83.74;97875.59;104987;1261;113683;-70